createdAt,value
2023-10-09T00:02:11.933Z,101783.44
2023-10-09T00:04:43.213Z,101773.84
2023-10-09T00:07:11.824Z,101776.81
2023-10-09T00:09:48.656Z,101775.19
2023-10-09T00:12:25.116Z,101777.06
2023-10-09T00:14:57.412Z,101775.19
2023-10-09T00:17:25.257Z,101783.44
2023-10-09T00:19:53.584Z,101771.03
2023-10-09T00:22:27.163Z,101766.72
2023-10-09T00:25:13.372Z,101779.53
2023-10-09T00:27:45.696Z,101779.06
2023-10-09T00:30:19.884Z,101779.16
2023-10-09T00:33:00.366Z,101778.56
2023-10-09T00:35:38.194Z,101777.69
2023-10-09T00:38:22.406Z,101772.53
2023-10-09T00:41:14.155Z,101783.25
2023-10-09T00:43:44.003Z,101777.81
2023-10-09T00:46:25.263Z,101770.69
2023-10-09T00:49:03.575Z,101774.50
2023-10-09T00:51:37.189Z,101772.78
2023-10-09T00:54:16.305Z,101771.94
2023-10-09T00:56:58.356Z,101766.00
2023-10-09T00:59:26.675Z,101771.56
2023-10-09T01:02:00.435Z,101770.81
2023-10-09T01:04:29.601Z,101765.53
2023-10-09T01:07:11.908Z,101767.31
2023-10-09T01:09:39.869Z,101757.47
2023-10-09T01:12:07.329Z,101762.91
2023-10-09T01:14:37.763Z,101754.91
2023-10-09T01:17:10.590Z,101764.91
2023-10-09T01:19:38.137Z,101755.41
2023-10-09T01:22:14.509Z,101750.94
2023-10-09T01:24:42.279Z,101748.38
2023-10-09T01:27:15.649Z,101749.38
2023-10-09T01:29:43.525Z,101747.88
2023-10-09T01:32:20.577Z,101746.56
2023-10-09T01:34:51.517Z,101746.91
2023-10-09T01:37:30.548Z,101742.34
2023-10-09T01:40:00.761Z,101750.47
2023-10-09T01:42:33.719Z,101755.41
2023-10-09T01:45:27.351Z,101755.66
2023-10-09T01:47:58.400Z,101751.47
2023-10-09T01:50:32.330Z,101754.19
2023-10-09T01:53:03.780Z,101747.03
2023-10-09T01:55:40.956Z,101753.34
2023-10-09T01:58:18.353Z,101755.28
2023-10-09T02:00:50.741Z,101750.13
2023-10-09T02:03:18.722Z,101757.72
2023-10-09T02:05:46.276Z,101759.59
2023-10-09T02:08:14.150Z,101763.28
2023-10-09T02:10:41.224Z,101759.81
2023-10-09T02:13:09.025Z,101763.53
2023-10-09T02:15:43.807Z,101751.09
2023-10-09T02:18:25.364Z,101763.78
2023-10-09T02:21:13.551Z,101758.72
2023-10-09T02:23:50.160Z,101757.84
2023-10-09T02:26:25.966Z,101758.09
2023-10-09T02:29:01.041Z,101759.94
2023-10-09T02:31:37.288Z,101762.78
2023-10-09T02:34:06.344Z,101764.50
2023-10-09T02:36:36.159Z,101760.78
2023-10-09T02:39:06.825Z,101761.69
2023-10-09T02:41:35.620Z,101763.50
2023-10-09T02:44:12.588Z,101761.91
2023-10-09T02:46:41.507Z,101759.22
2023-10-09T02:49:10.610Z,101763.78
2023-10-09T02:51:43.860Z,101766.47
2023-10-09T02:54:33.662Z,101762.88
2023-10-09T02:57:16.716Z,101756.84
2023-10-09T02:59:46.087Z,101749.81
2023-10-09T03:02:13.326Z,101752.53
2023-10-09T03:04:42.679Z,101751.06
2023-10-09T03:07:11.540Z,101752.91
2023-10-09T03:09:39.364Z,101744.91
2023-10-09T03:12:10.869Z,101750.34
2023-10-09T03:14:39.668Z,101747.50
2023-10-09T03:17:12.434Z,101758.31
2023-10-09T03:19:41.469Z,101751.81
2023-10-09T03:22:12.322Z,101760.66
2023-10-09T03:24:48.749Z,101760.56
2023-10-09T03:27:17.101Z,101758.59
2023-10-09T03:29:50.095Z,101759.31
2023-10-09T03:32:17.457Z,101756.59
2023-10-09T03:34:44.983Z,101757.47
2023-10-09T03:37:35.144Z,101754.75
2023-10-09T03:40:04.749Z,101763.78
2023-10-09T03:42:31.730Z,101764.50
2023-10-09T03:44:59.082Z,101757.22
2023-10-09T03:47:28.637Z,101765.50
2023-10-09T03:49:55.927Z,101762.66
2023-10-09T03:52:27.024Z,101759.81
2023-10-09T03:54:55.843Z,101760.78
2023-10-09T03:57:24.731Z,101765.25
2023-10-09T03:59:53.047Z,101767.81
2023-10-09T04:02:23.105Z,101769.66
2023-10-09T04:04:52.934Z,101764.38
2023-10-09T04:07:20.092Z,101759.22
2023-10-09T04:09:49.110Z,101768.19
2023-10-09T04:12:26.201Z,101765.50
2023-10-09T04:14:58.886Z,101762.88
2023-10-09T04:17:35.915Z,101764.72
2023-10-09T04:20:20.412Z,101767.44
2023-10-09T04:23:01.521Z,101760.31
2023-10-09T04:25:42.698Z,101764.00
2023-10-09T04:28:13.069Z,101760.41
2023-10-09T04:30:56.641Z,101757.69
2023-10-09T04:33:30.091Z,101756.84
2023-10-09T04:36:22.200Z,101749.72
2023-10-09T04:39:04.734Z,101747.88
2023-10-09T04:41:53.148Z,101752.28
2023-10-09T04:44:23.999Z,101752.44
2023-10-09T04:47:14.135Z,101758.06
2023-10-09T04:50:03.677Z,101753.75
2023-10-09T04:52:31.065Z,101756.59
2023-10-09T04:55:08.665Z,101754.84
2023-10-09T04:57:43.631Z,101748.59
2023-10-09T05:00:27.796Z,101746.00
2023-10-09T05:03:26.062Z,101747.88
2023-10-09T05:05:59.937Z,101741.91
2023-10-09T05:08:31.086Z,101743.53
2023-10-09T05:11:02.457Z,101735.50
2023-10-09T05:13:43.107Z,101738.19
2023-10-09T05:16:27.899Z,101728.50
2023-10-09T05:18:57.749Z,101738.56
2023-10-09T05:21:32.361Z,101740.41
2023-10-09T05:24:13.439Z,101742.50
2023-10-09T05:26:49.074Z,101736.97
2023-10-09T05:29:34.346Z,101736.97
2023-10-09T05:32:06.724Z,101741.28
2023-10-09T05:35:12.582Z,101742.13
2023-10-09T05:37:44.287Z,101745.84
2023-10-09T05:40:11.756Z,101747.06
2023-10-09T05:42:38.696Z,101760.59
2023-10-09T05:45:19.962Z,101749.38
2023-10-09T05:47:55.150Z,101747.41
2023-10-09T05:50:23.411Z,101754.44
2023-10-09T05:52:54.678Z,101758.00
2023-10-09T05:55:23.760Z,101756.03
2023-10-09T05:58:14.850Z,101757.00
2023-10-09T06:01:00.422Z,101760.59
2023-10-09T06:03:27.593Z,101757.91
2023-10-09T06:05:59.670Z,101753.19
2023-10-09T06:08:49.417Z,101750.38
2023-10-09T06:11:34.342Z,101757.75
2023-10-09T06:14:13.280Z,101760.47
2023-10-09T06:16:43.070Z,101757.00
2023-10-09T06:19:22.007Z,101768.59
2023-10-09T06:21:54.767Z,101771.81
2023-10-09T06:24:27.214Z,101773.00
2023-10-09T06:27:00.116Z,101771.06
2023-10-09T06:29:36.808Z,101772.78
2023-10-09T06:32:27.746Z,101777.94
2023-10-09T06:35:16.775Z,101779.81
2023-10-09T06:38:14.817Z,101782.19
2023-10-09T06:41:01.337Z,101781.22
2023-10-09T06:43:29.620Z,101790.06
2023-10-09T06:46:17.008Z,101783.44
2023-10-09T06:48:46.877Z,101780.34
2023-10-09T06:51:27.350Z,101786.63
2023-10-09T06:53:58.084Z,101795.50
2023-10-09T06:56:30.654Z,101790.09
2023-10-09T06:58:58.917Z,101789.84
2023-10-09T07:01:29.495Z,101796.00
2023-10-09T07:04:16.492Z,101796.66
2023-10-09T07:06:43.753Z,101795.53
2023-10-09T07:09:10.761Z,101787.91
2023-10-09T07:11:40.778Z,101796.28
2023-10-09T07:14:44.337Z,101797.75
2023-10-09T07:17:23.065Z,101794.09
2023-10-09T07:19:52.532Z,101805.88
2023-10-09T07:22:22.274Z,101794.09
2023-10-09T07:24:58.851Z,101785.56
2023-10-09T07:27:46.039Z,101800.84
2023-10-09T07:30:31.405Z,101797.41
2023-10-09T07:33:13.109Z,101797.06
2023-10-09T07:35:49.190Z,101787.56
2023-10-09T07:38:29.413Z,101788.06
2023-10-09T07:41:06.776Z,101798.28
2023-10-09T07:43:44.671Z,101794.31
2023-10-09T07:46:34.188Z,101791.50
2023-10-09T07:49:13.676Z,101802.56
2023-10-09T07:51:45.103Z,101798.44
2023-10-09T07:54:16.098Z,101796.19
2023-10-09T07:56:47.637Z,101799.75
2023-10-09T07:59:19.701Z,101798.28
2023-10-09T08:02:00.106Z,101798.66
2023-10-09T08:05:34.870Z,101795.53
2023-10-09T08:08:39.534Z,101793.34
2023-10-09T08:11:28.368Z,101791.69
2023-10-09T08:13:58.344Z,101782.31
2023-10-09T08:16:37.181Z,101786.84
2023-10-09T08:19:40.796Z,101787.19
2023-10-09T08:22:25.773Z,101781.94
2023-10-09T08:24:57.166Z,101780.09
2023-10-09T08:27:34.033Z,101771.81
2023-10-09T08:30:20.614Z,101776.19
2023-10-09T08:35:52.540Z,101771.38
2023-10-09T08:38:25.972Z,101768.97
2023-10-09T08:41:01.382Z,101775.34
2023-10-09T08:43:33.640Z,101777.25
2023-10-09T08:46:04.458Z,101774.56
2023-10-09T08:48:32.113Z,101766.50
2023-10-09T08:50:59.159Z,101770.13
2023-10-09T08:53:29.036Z,101759.41
2023-10-09T08:55:56.661Z,101765.19
2023-10-09T08:58:43.580Z,101756.91
2023-10-09T09:01:22.309Z,101756.75
2023-10-09T09:03:51.565Z,101753.09
2023-10-09T09:06:20.359Z,101753.94
2023-10-09T09:08:48.654Z,101752.28
2023-10-09T09:11:19.115Z,101751.41
2023-10-09T09:14:00.118Z,101749.56
2023-10-09T09:16:33.158Z,101742.25
2023-10-09T09:19:06.127Z,101744.25
2023-10-09T09:21:41.990Z,101744.25
2023-10-09T09:24:28.124Z,101736.91
2023-10-09T09:27:13.737Z,101733.31
2023-10-09T09:29:43.096Z,101724.13
2023-10-09T09:32:21.893Z,101719.97
2023-10-09T09:34:56.728Z,101713.63
2023-10-09T09:37:33.034Z,101713.41
2023-10-09T09:40:02.566Z,101709.66
2023-10-09T09:42:32.768Z,101709.47
2023-10-09T09:45:05.883Z,101712.00
2023-10-09T09:47:37.264Z,101707.50
2023-10-09T09:50:14.796Z,101710.34
2023-10-09T09:52:42.317Z,101701.25
2023-10-09T09:55:23.522Z,101702.16
2023-10-09T09:57:53.809Z,101702.09
2023-10-09T10:00:44.028Z,101699.16
2023-10-09T10:03:16.118Z,101699.75
2023-10-09T10:05:47.655Z,101691.78
2023-10-09T10:08:21.468Z,101699.94
2023-10-09T10:11:06.012Z,101688.06
2023-10-09T10:13:43.208Z,101689.84
2023-10-09T10:16:21.241Z,101682.56
2023-10-09T10:19:01.556Z,101684.31
2023-10-09T10:21:33.252Z,101687.28
2023-10-09T10:24:07.097Z,101678.28
2023-10-09T10:26:37.384Z,101677.44
2023-10-09T10:29:24.534Z,101676.69
2023-10-09T10:32:11.721Z,101670.78
2023-10-09T10:34:48.846Z,101671.97
2023-10-09T10:37:15.863Z,101670.16
2023-10-09T10:39:52.657Z,101668.44
2023-10-09T10:42:37.603Z,101656.16
2023-10-09T10:45:26.286Z,101663.38
2023-10-09T10:47:59.465Z,101653.47
2023-10-09T10:50:32.627Z,101639.81
2023-10-09T10:53:36.284Z,101640.53
2023-10-09T10:56:16.058Z,101626.00
2023-10-09T10:58:55.817Z,101628.56
2023-10-09T11:01:27.355Z,101623.97
2023-10-09T11:03:57.925Z,101619.50
2023-10-09T11:06:38.965Z,101614.38
2023-10-09T11:09:24.620Z,101615.25
2023-10-09T11:12:13.105Z,101611.31
2023-10-09T11:15:09.929Z,101607.91
2023-10-09T11:17:39.774Z,101599.50
2023-10-09T11:20:33.067Z,101594.66
2023-10-09T11:23:12.461Z,101585.19
2023-10-09T11:25:52.402Z,101586.88
2023-10-09T11:28:43.542Z,101578.81
2023-10-09T11:31:17.094Z,101577.59
2023-10-09T11:33:52.681Z,101577.72
2023-10-09T11:36:35.619Z,101568.28
2023-10-09T11:39:32.303Z,101563.28
2023-10-09T11:42:10.551Z,101553.41
2023-10-09T11:44:45.596Z,101556.13
2023-10-09T11:47:19.554Z,101554.34
2023-10-09T11:49:59.802Z,101553.25
2023-10-09T11:52:32.803Z,101543.28
2023-10-09T11:54:59.889Z,101539.44
2023-10-09T11:57:36.545Z,101534.06
2023-10-09T12:00:12.842Z,101534.69
2023-10-09T12:02:45.384Z,101526.50
2023-10-09T12:05:18.239Z,101524.72
2023-10-09T12:07:56.146Z,101520.19
2023-10-09T12:10:26.970Z,101516.50
2023-10-09T12:12:54.927Z,101505.66
2023-10-09T12:15:22.032Z,101506.78
2023-10-09T12:17:49.040Z,101494.38
2023-10-09T12:20:31.756Z,101492.56
2023-10-09T12:23:07.296Z,101490.75
2023-10-09T12:25:36.373Z,101484.69
2023-10-09T12:28:08.061Z,101477.19
2023-10-09T12:30:40.945Z,101478.97
2023-10-09T12:33:09.898Z,101477.34
2023-10-09T12:35:41.584Z,101470.84
2023-10-09T12:38:11.718Z,101465.97
2023-10-09T12:40:43.640Z,101465.44
2023-10-09T12:43:18.118Z,101460.19
2023-10-09T12:45:46.170Z,101458.56
2023-10-09T12:48:15.517Z,101452.69
2023-10-09T12:50:42.961Z,101450.56
2023-10-09T12:53:10.182Z,101440.69
2023-10-09T12:55:42.302Z,101437.38
2023-10-09T12:58:15.492Z,101436.56
2023-10-09T13:00:50.383Z,101430.50
2023-10-09T13:03:19.362Z,101428.84
2023-10-09T13:05:59.365Z,101418.47
2023-10-09T13:08:36.173Z,101420.00
2023-10-09T13:11:12.193Z,101415.59
2023-10-09T13:13:43.962Z,101412.94
2023-10-09T13:16:26.247Z,101402.97
2023-10-09T13:18:54.868Z,101401.59
2023-10-09T13:21:24.702Z,101404.78
2023-10-09T13:23:52.353Z,101396.31
2023-10-09T13:26:32.253Z,101389.38
2023-10-09T13:29:02.861Z,101392.34
2023-10-09T13:31:33.338Z,101386.44
2023-10-09T13:34:02.281Z,101388.81
2023-10-09T13:36:35.814Z,101385.88
2023-10-09T13:39:21.406Z,101373.16
2023-10-09T13:41:49.749Z,101370.63
2023-10-09T13:44:17.553Z,101370.22
2023-10-09T13:46:45.460Z,101362.44
2023-10-09T13:49:15.875Z,101361.44
2023-10-09T13:51:46.059Z,101360.13
2023-10-09T13:54:29.460Z,101357.00
2023-10-09T13:56:56.571Z,101348.53
2023-10-09T13:59:26.406Z,101349.22
2023-10-09T14:01:57.845Z,101348.81
2023-10-09T14:04:27.343Z,101339.47
2023-10-09T14:07:00.651Z,101341.59
2023-10-09T14:09:46.340Z,101338.84
2023-10-09T14:12:16.347Z,101332.06
2023-10-09T14:14:48.881Z,101335.06
2023-10-09T14:17:20.581Z,101333.13
2023-10-09T14:19:52.621Z,101329.50
2023-10-09T14:22:22.298Z,101320.00
2023-10-09T14:24:56.388Z,101322.31
2023-10-09T14:27:31.252Z,101323.56
2023-10-09T14:30:02.039Z,101319.13
2023-10-09T14:32:38.681Z,101313.19
2023-10-09T14:35:14.117Z,101310.81
2023-10-09T14:37:42.722Z,101302.28
2023-10-09T14:40:22.836Z,101299.50
2023-10-09T14:42:55.889Z,101303.72
2023-10-09T14:45:28.535Z,101299.03
2023-10-09T14:47:55.903Z,101296.88
2023-10-09T14:50:23.981Z,101300.03
2023-10-09T14:52:51.930Z,101297.06
2023-10-09T14:55:22.532Z,101284.75
2023-10-09T14:57:51.274Z,101297.41
2023-10-09T15:00:24.117Z,101291.47
2023-10-09T15:02:52.130Z,101293.56
2023-10-09T15:05:19.440Z,101289.53
2023-10-09T15:07:47.827Z,101289.72
2023-10-09T15:10:19.392Z,101291.84
2023-10-09T15:12:49.703Z,101283.13
2023-10-09T15:15:17.892Z,101289.19
2023-10-09T15:17:45.179Z,101280.31
2023-10-09T15:20:16.124Z,101281.56
2023-10-09T15:22:43.630Z,101278.34
2023-10-09T15:25:15.773Z,101280.66
2023-10-09T15:27:44.435Z,101279.34
2023-10-09T15:30:15.062Z,101282.50
2023-10-09T15:32:43.218Z,101282.91
2023-10-09T15:35:11.509Z,101282.25
2023-10-09T15:37:38.802Z,101279.69
2023-10-09T15:40:16.347Z,101288.56
2023-10-09T15:42:50.810Z,101281.75
2023-10-09T15:45:22.629Z,101280.47
2023-10-09T15:47:52.315Z,101284.00
2023-10-09T15:50:20.862Z,101284.59
2023-10-09T15:52:50.541Z,101284.97
2023-10-09T15:55:22.035Z,101291.91
2023-10-09T15:57:50.027Z,101288.88
2023-10-09T16:00:19.652Z,101280.56
2023-10-09T16:02:54.381Z,101279.47
2023-10-09T16:05:26.698Z,101283.84
2023-10-09T16:07:55.351Z,101278.28
2023-10-09T16:10:24.265Z,101288.16
2023-10-09T16:12:54.247Z,101287.41
2023-10-09T16:15:21.691Z,101293.22
2023-10-09T16:17:50.243Z,101295.22
2023-10-09T16:20:23.398Z,101303.78
2023-10-09T16:22:51.487Z,101305.13
2023-10-09T16:25:22.137Z,101310.03
2023-10-09T16:27:49.078Z,101316.88
2023-10-09T16:30:22.141Z,101325.22
2023-10-09T16:32:51.681Z,101319.75
2023-10-09T16:35:19.278Z,101325.16
2023-10-09T16:37:50.735Z,101322.31
2023-10-09T16:40:21.759Z,101315.19
2023-10-09T16:42:54.572Z,101323.53
2023-10-09T16:45:22.119Z,101333.50
2023-10-09T16:47:52.396Z,101331.72
2023-10-09T16:50:20.881Z,101336.25
2023-10-09T16:52:48.353Z,101341.59
2023-10-09T16:55:16.599Z,101338.53
2023-10-09T16:57:45.079Z,101339.25
2023-10-09T17:00:46.295Z,101348.41
2023-10-09T17:03:15.901Z,101341.09
2023-10-09T17:05:59.646Z,101347.47
2023-10-09T17:08:30.837Z,101353.03
2023-10-09T17:10:58.702Z,101356.66
2023-10-09T17:13:27.700Z,101358.59
2023-10-09T17:15:54.908Z,101355.00
2023-10-09T17:18:26.618Z,101363.94
2023-10-09T17:20:55.531Z,101360.22
2023-10-09T17:23:23.745Z,101361.13
2023-10-09T17:25:58.650Z,101363.50
2023-10-09T17:28:26.668Z,101370.91
2023-10-09T17:31:02.319Z,101374.19
2023-10-09T17:33:29.508Z,101379.50
2023-10-09T17:35:56.503Z,101379.16
2023-10-09T17:38:23.967Z,101377.13
2023-10-09T17:40:54.423Z,101387.06
2023-10-09T17:43:22.384Z,101377.81
2023-10-09T17:45:53.877Z,101384.81
2023-10-09T17:48:25.306Z,101380.94
2023-10-09T17:50:54.049Z,101384.34
2023-10-09T17:53:21.144Z,101381.25
2023-10-09T17:55:48.814Z,101376.31
2023-10-09T17:58:16.248Z,101380.59
2023-10-09T18:00:44.262Z,101385.38
2023-10-09T18:03:16.839Z,101391.88
2023-10-09T18:05:46.025Z,101385.03
2023-10-09T18:08:16.233Z,101386.03
2023-10-09T18:10:44.717Z,101380.94
2023-10-09T18:13:18.147Z,101390.34
2023-10-09T18:15:45.783Z,101390.50
2023-10-09T18:18:22.015Z,101385.22
2023-10-09T18:20:53.605Z,101393.06
2023-10-09T18:23:20.864Z,101384.66
2023-10-09T18:25:50.905Z,101393.88
2023-10-09T18:28:18.764Z,101392.34
2023-10-09T18:30:50.298Z,101393.53
2023-10-09T18:33:17.778Z,101398.47
2023-10-09T18:35:45.099Z,101397.25
2023-10-09T18:38:17.296Z,101388.41
2023-10-09T18:40:50.882Z,101402.38
2023-10-09T18:43:20.641Z,101400.00
2023-10-09T18:45:47.676Z,101397.78
2023-10-09T18:48:19.259Z,101391.94
2023-10-09T18:50:46.360Z,101396.88
2023-10-09T18:53:14.283Z,101390.06
2023-10-09T18:55:41.828Z,101391.56
2023-10-09T18:58:12.678Z,101395.47
2023-10-09T19:00:50.129Z,101400.44
2023-10-09T19:03:21.510Z,101397.16
2023-10-09T19:05:48.854Z,101404.84
2023-10-09T19:08:19.360Z,101403.28
2023-10-09T19:10:47.322Z,101397.13
2023-10-09T19:13:15.167Z,101406.53
2023-10-09T19:15:45.919Z,101402.78
2023-10-09T19:18:15.714Z,101402.91
2023-10-09T19:20:43.925Z,101414.84
2023-10-09T19:23:12.770Z,101415.00
2023-10-09T19:25:44.158Z,101424.38
2023-10-09T19:28:13.280Z,101421.97
2023-10-09T19:30:40.376Z,101426.91
2023-10-09T19:33:07.357Z,101422.63
2023-10-09T19:35:35.338Z,101429.25
2023-10-09T19:38:03.794Z,101437.78
2023-10-09T19:40:34.023Z,101435.53
2023-10-09T19:43:01.476Z,101433.47
2023-10-09T19:45:31.530Z,101435.81
2023-10-09T19:47:58.833Z,101432.53
2023-10-09T19:50:26.435Z,101442.06
2023-10-09T19:52:53.722Z,101446.16
2023-10-09T19:55:23.556Z,101435.56
2023-10-09T19:57:52.362Z,101434.00
2023-10-09T20:00:22.805Z,101438.06
2023-10-09T20:02:54.813Z,101439.09
2023-10-09T20:05:23.976Z,101443.69
2023-10-09T20:07:51.298Z,101450.34
2023-10-09T20:10:19.535Z,101453.19
2023-10-09T20:12:46.964Z,101454.22
2023-10-09T20:15:14.386Z,101465.28
2023-10-09T20:17:44.630Z,101476.50
2023-10-09T20:20:13.265Z,101472.06
2023-10-09T20:22:41.053Z,101468.91
2023-10-09T20:25:14.374Z,101465.50
2023-10-09T20:27:44.318Z,101468.88
2023-10-09T20:30:12.407Z,101476.66
2023-10-09T20:32:42.982Z,101479.69
2023-10-09T20:35:13.540Z,101473.88
2023-10-09T20:37:41.899Z,101462.56
2023-10-09T20:40:18.880Z,101471.34
2023-10-09T20:42:48.776Z,101466.38
2023-10-09T20:45:19.347Z,101481.34
2023-10-09T20:47:47.720Z,101475.50
2023-10-09T20:50:18.451Z,101477.66
2023-10-09T20:52:50.139Z,101477.97
2023-10-09T20:55:21.030Z,101479.31
2023-10-09T20:58:00.543Z,101476.03
2023-10-09T21:00:33.352Z,101479.91
2023-10-09T21:03:01.386Z,101475.50
2023-10-09T21:05:29.463Z,101482.94
2023-10-09T21:07:57.314Z,101475.78
2023-10-09T21:10:25.022Z,101474.94
2023-10-09T21:12:52.942Z,101481.06
2023-10-09T21:15:22.034Z,101481.25
2023-10-09T21:17:53.404Z,101485.66
2023-10-09T21:20:27.137Z,101490.97
2023-10-09T21:22:57.653Z,101490.81
2023-10-09T21:25:28.383Z,101500.31
2023-10-09T21:27:56.201Z,101499.56
2023-10-09T21:30:25.070Z,101502.47
2023-10-09T21:32:55.203Z,101506.47
2023-10-09T21:35:29.639Z,101493.88
2023-10-09T21:38:01.494Z,101507.78
2023-10-09T21:40:31.059Z,101507.25
2023-10-09T21:43:07.868Z,101511.97
2023-10-09T21:45:40.325Z,101505.97
2023-10-09T21:48:08.108Z,101514.00
2023-10-09T21:50:39.706Z,101515.00
2023-10-09T21:53:07.292Z,101517.72
2023-10-09T21:55:38.306Z,101519.59
2023-10-09T21:58:11.857Z,101517.03
2023-10-09T22:00:39.042Z,101509.28
2023-10-09T22:03:09.533Z,101499.41
2023-10-09T22:05:44.405Z,101507.88
2023-10-09T22:08:15.242Z,101507.50
2023-10-09T22:10:48.866Z,101510.53
2023-10-09T22:13:16.278Z,101513.84
2023-10-09T22:15:46.837Z,101514.44
2023-10-09T22:18:21.625Z,101512.00
2023-10-09T22:20:53.189Z,101507.00
2023-10-09T22:23:20.437Z,101518.19
2023-10-09T22:26:01.491Z,101515.78
2023-10-09T22:28:30.640Z,101508.88
2023-10-09T22:31:04.654Z,101516.50
2023-10-09T22:33:50.815Z,101502.31
2023-10-09T22:36:31.363Z,101505.47
2023-10-09T22:39:09.342Z,101506.06
2023-10-09T22:41:36.424Z,101509.38
2023-10-09T22:44:11.802Z,101509.81
2023-10-09T22:46:41.888Z,101510.97
2023-10-09T22:49:15.817Z,101515.09
2023-10-09T22:51:52.078Z,101503.66
2023-10-09T22:54:47.287Z,101514.25
2023-10-09T22:57:14.493Z,101502.25
2023-10-09T22:59:51.689Z,101508.97
2023-10-09T23:02:39.879Z,101512.97
2023-10-09T23:05:13.590Z,101513.56
2023-10-09T23:07:43.011Z,101515.69
2023-10-09T23:10:16.827Z,101513.41
2023-10-09T23:12:50.160Z,101519.00
2023-10-09T23:15:34.262Z,101522.84
2023-10-09T23:18:27.389Z,101528.69
2023-10-09T23:21:12.862Z,101521.66
2023-10-09T23:23:42.094Z,101519.22
2023-10-09T23:26:11.144Z,101520.25
2023-10-09T23:28:40.035Z,101520.41
2023-10-09T23:31:37.244Z,101519.38
2023-10-09T23:34:10.099Z,101522.38
2023-10-09T23:36:44.569Z,101529.53
2023-10-09T23:39:11.757Z,101522.66
2023-10-09T23:41:40.954Z,101523.78
2023-10-09T23:44:08.879Z,101528.66
2023-10-09T23:46:39.340Z,101533.38
2023-10-09T23:49:07.723Z,101534.38
2023-10-09T23:51:40.716Z,101537.25
2023-10-09T23:54:12.762Z,101539.09
2023-10-09T23:56:44.295Z,101534.81
2023-10-09T23:59:14.208Z,101540.50
